sensor_id;sensor_type;location;lat;lon;timestamp;temperature;humidity
2002;DHT22;1003;48.002;7.788;2022-10-31T00:00:58;10.10;99.90
2002;DHT22;1003;48.002;7.788;2022-10-31T00:03:25;10.10;99.90
2002;DHT22;1003;48.002;7.788;2022-10-31T00:05:53;10.10;99.90
2002;DHT22;1003;48.002;7.788;2022-10-31T00:08:20;10.10;99.90
2002;DHT22;1003;48.002;7.788;2022-10-31T00:10:48;10.10;99.90
2002;DHT22;1003;48.002;7.788;2022-10-31T00:13:15;10.10;99.90
2002;DHT22;1003;48.002;7.788;2022-10-31T00:15:42;10.10;99.90
2002;DHT22;1003;48.002;7.788;2022-10-31T00:18:10;10.10;99.90
2002;DHT22;1003;48.002;7.788;2022-10-31T00:20:37;10.10;99.90
2002;DHT22;1003;48.002;7.788;2022-10-31T00:23:06;10.10;99.90
2002;DHT22;1003;48.002;7.788;2022-10-31T00:25:34;10.10;99.90
2002;DHT22;1003;48.002;7.788;2022-10-31T00:28:05;10.00;99.90
2002;DHT22;1003;48.002;7.788;2022-10-31T00:30:34;10.10;99.90
2002;DHT22;1003;48.002;7.788;2022-10-31T00:33:03;10.10;99.90
2002;DHT22;1003;48.002;7.788;2022-10-31T00:35:30;10.10;99.90
2002;DHT22;1003;48.002;7.788;2022-10-31T00:37:57;10.10;99.90
2002;DHT22;1003;48.002;7.788;2022-10-31T00:40:25;10.10;99.90
2002;DHT22;1003;48.002;7.788;2022-10-31T00:42:52;10.10;99.90
2002;DHT22;1003;48.002;7.788;2022-10-31T00:45:20;10.00;99.90
2002;DHT22;1003;48.002;7.788;2022-10-31T00:47:47;10.00;99.90
2002;DHT22;1003;48.002;7.788;2022-10-31T00:50:14;9.90;99.90
2002;DHT22;1003;48.002;7.788;2022-10-31T00:52:41;9.80;99.90
2002;DHT22;1003;48.002;7.788;2022-10-31T00:55:08;9.80;99.90
2002;DHT22;1003;48.002;7.788;2022-10-31T00:57:35;9.70;99.90
2002;DHT22;1003;48.002;7.788;2022-10-31T01:00:03;9.60;99.90
2002;DHT22;1003;48.002;7.788;2022-10-31T01:02:32;9.60;99.90
2002;DHT22;1003;48.002;7.788;2022-10-31T01:04:59;9.60;99.90
2002;DHT22;1003;48.002;7.788;2022-10-31T01:07:26;9.50;99.90
2002;DHT22;1003;48.002;7.788;2022-10-31T01:09:53;9.50;99.90
2002;DHT22;1003;48.002;7.788;2022-10-31T01:12:20;9.50;99.90
2002;DHT22;1003;48.002;7.788;2022-10-31T01:14:47;9.40;99.90
2002;DHT22;1003;48.002;7.788;2022-10-31T01:17:14;9.40;99.90
2002;DHT22;1003;48.002;7.788;2022-10-31T01:19:42;9.30;99.90
2002;DHT22;1003;48.002;7.788;2022-10-31T01:22:09;9.30;99.90
2002;DHT22;1003;48.002;7.788;2022-10-31T01:24:36;9.30;99.90
2002;DHT22;1003;48.002;7.788;2022-10-31T01:27:03;9.20;99.90
2002;DHT22;1003;48.002;7.788;2022-10-31T01:29:30;9.20;99.90
2002;DHT22;1003;48.002;7.788;2022-10-31T01:31:57;9.20;99.90
2002;DHT22;1003;48.002;7.788;2022-10-31T01:34:24;9.10;99.90
2002;DHT22;1003;48.002;7.788;2022-10-31T01:36:53;9.10;99.90
2002;DHT22;1003;48.002;7.788;2022-10-31T01:39:20;9.10;99.90
2002;DHT22;1003;48.002;7.788;2022-10-31T01:41:50;9.10;99.90
2002;DHT22;1003;48.002;7.788;2022-10-31T01:44:52;9.10;99.90
2002;DHT22;1003;48.002;7.788;2022-10-31T01:47:31;9.00;99.90
2002;DHT22;1003;48.002;7.788;2022-10-31T01:50:09;9.10;99.90
2002;DHT22;1003;48.002;7.788;2022-10-31T01:52:43;9.10;99.90
2002;DHT22;1003;48.002;7.788;2022-10-31T01:55:17;9.10;99.90
2002;DHT22;1003;48.002;7.788;2022-10-31T01:57:49;9.10;99.90
2002;DHT22;1003;48.002;7.788;2022-10-31T02:00:20;9.10;99.90
2002;DHT22;1003;48.002;7.788;2022-10-31T02:02:49;9.10;99.90
2002;DHT22;1003;48.002;7.788;2022-10-31T02:05:22;9.10;99.90
2002;DHT22;1003;48.002;7.788;2022-10-31T02:07:55;9.20;99.90
2002;DHT22;1003;48.002;7.788;2022-10-31T02:10:25;9.20;99.90
2002;DHT22;1003;48.002;7.788;2022-10-31T02:12:56;9.20;99.90
2002;DHT22;1003;48.002;7.788;2022-10-31T02:15:26;9.20;99.90
2002;DHT22;1003;48.002;7.788;2022-10-31T02:17:54;9.20;99.90
2002;DHT22;1003;48.002;7.788;2022-10-31T02:20:24;9.20;99.90
2002;DHT22;1003;48.002;7.788;2022-10-31T02:23:23;9.20;99.90
2002;DHT22;1003;48.002;7.788;2022-10-31T02:29:44;9.20;99.90
2002;DHT22;1003;48.002;7.788;2022-10-31T02:32:46;9.20;99.90
2002;DHT22;1003;48.002;7.788;2022-10-31T02:35:47;9.10;99.90
2002;DHT22;1003;48.002;7.788;2022-10-31T02:38:28;9.10;99.90
2002;DHT22;1003;48.002;7.788;2022-10-31T02:41:11;9.10;99.90
2002;DHT22;1003;48.002;7.788;2022-10-31T02:43:54;9.10;99.90
2002;DHT22;1003;48.002;7.788;2022-10-31T02:46:34;9.10;99.90
2002;DHT22;1003;48.002;7.788;2022-10-31T02:49:10;9.10;99.90
2002;DHT22;1003;48.002;7.788;2022-10-31T02:51:43;9.00;99.90
2002;DHT22;1003;48.002;7.788;2022-10-31T02:54:22;9.00;99.90
2002;DHT22;1003;48.002;7.788;2022-10-31T02:56:54;9.00;99.90
2002;DHT22;1003;48.002;7.788;2022-10-31T02:59:26;9.00;99.90
2002;DHT22;1003;48.002;7.788;2022-10-31T03:02:12;9.00;99.90
2002;DHT22;1003;48.002;7.788;2022-10-31T03:05:24;9.00;99.90
2002;DHT22;1003;48.002;7.788;2022-10-31T03:08:02;9.00;99.90
2002;DHT22;1003;48.002;7.788;2022-10-31T03:10:41;9.00;99.90
2002;DHT22;1003;48.002;7.788;2022-10-31T03:13:18;8.90;99.90
2002;DHT22;1003;48.002;7.788;2022-10-31T03:15:53;9.00;99.90
2002;DHT22;1003;48.002;7.788;2022-10-31T03:18:33;8.90;99.90
2002;DHT22;1003;48.002;7.788;2022-10-31T03:21:09;8.90;99.90
2002;DHT22;1003;48.002;7.788;2022-10-31T03:23:43;8.90;99.90
2002;DHT22;1003;48.002;7.788;2022-10-31T03:26:14;8.90;99.90
2002;DHT22;1003;48.002;7.788;2022-10-31T03:28:44;8.80;99.90
2002;DHT22;1003;48.002;7.788;2022-10-31T03:31:19;8.80;99.90
2002;DHT22;1003;48.002;7.788;2022-10-31T03:33:54;8.80;99.90
2002;DHT22;1003;48.002;7.788;2022-10-31T03:36:27;8.80;99.90
2002;DHT22;1003;48.002;7.788;2022-10-31T03:38:58;8.70;99.90
2002;DHT22;1003;48.002;7.788;2022-10-31T03:41:31;8.70;99.90
2002;DHT22;1003;48.002;7.788;2022-10-31T03:44:09;8.70;99.90
2002;DHT22;1003;48.002;7.788;2022-10-31T03:46:40;8.70;99.90
2002;DHT22;1003;48.002;7.788;2022-10-31T03:49:08;8.70;99.90
2002;DHT22;1003;48.002;7.788;2022-10-31T03:51:42;8.80;99.90
2002;DHT22;1003;48.002;7.788;2022-10-31T03:54:20;8.80;99.90
2002;DHT22;1003;48.002;7.788;2022-10-31T03:56:55;8.80;99.90
2002;DHT22;1003;48.002;7.788;2022-10-31T03:59:26;8.80;99.90
2002;DHT22;1003;48.002;7.788;2022-10-31T04:02:02;8.70;99.90
2002;DHT22;1003;48.002;7.788;2022-10-31T04:04:34;8.70;99.90
2002;DHT22;1003;48.002;7.788;2022-10-31T04:07:06;8.70;99.90
2002;DHT22;1003;48.002;7.788;2022-10-31T04:09:37;8.70;99.90
2002;DHT22;1003;48.002;7.788;2022-10-31T04:12:09;8.70;99.90
2002;DHT22;1003;48.002;7.788;2022-10-31T04:14:43;8.70;99.90
2002;DHT22;1003;48.002;7.788;2022-10-31T04:17:15;8.70;99.90
2002;DHT22;1003;48.002;7.788;2022-10-31T04:19:45;8.70;99.90
2002;DHT22;1003;48.002;7.788;2022-10-31T04:22:13;8.70;99.90
2002;DHT22;1003;48.002;7.788;2022-10-31T04:24:41;8.70;99.90
2002;DHT22;1003;48.002;7.788;2022-10-31T04:27:07;8.80;99.90
2002;DHT22;1003;48.002;7.788;2022-10-31T04:29:35;8.80;99.90
2002;DHT22;1003;48.002;7.788;2022-10-31T04:32:02;8.80;99.90
2002;DHT22;1003;48.002;7.788;2022-10-31T04:34:29;8.80;99.90
2002;DHT22;1003;48.002;7.788;2022-10-31T04:36:56;8.80;99.90
2002;DHT22;1003;48.002;7.788;2022-10-31T04:39:24;8.80;99.90
2002;DHT22;1003;48.002;7.788;2022-10-31T04:41:51;8.70;99.90
2002;DHT22;1003;48.002;7.788;2022-10-31T04:44:18;8.70;99.90
2002;DHT22;1003;48.002;7.788;2022-10-31T04:46:45;8.60;99.90
2002;DHT22;1003;48.002;7.788;2022-10-31T04:49:12;8.60;99.90
2002;DHT22;1003;48.002;7.788;2022-10-31T04:51:39;8.60;99.90
2002;DHT22;1003;48.002;7.788;2022-10-31T04:54:06;8.60;99.90
2002;DHT22;1003;48.002;7.788;2022-10-31T04:56:35;8.60;99.90
2002;DHT22;1003;48.002;7.788;2022-10-31T04:59:02;8.60;99.90
2002;DHT22;1003;48.002;7.788;2022-10-31T05:01:29;8.60;99.90
2002;DHT22;1003;48.002;7.788;2022-10-31T05:03:56;8.60;99.90
2002;DHT22;1003;48.002;7.788;2022-10-31T05:06:23;8.50;99.90
2002;DHT22;1003;48.002;7.788;2022-10-31T05:08:50;8.60;99.90
2002;DHT22;1003;48.002;7.788;2022-10-31T05:11:17;8.50;99.90
2002;DHT22;1003;48.002;7.788;2022-10-31T05:13:46;8.60;99.90
2002;DHT22;1003;48.002;7.788;2022-10-31T05:16:13;8.50;99.90
2002;DHT22;1003;48.002;7.788;2022-10-31T05:18:40;8.50;99.90
2002;DHT22;1003;48.002;7.788;2022-10-31T05:21:07;8.50;99.90
2002;DHT22;1003;48.002;7.788;2022-10-31T05:23:34;8.60;99.90
2002;DHT22;1003;48.002;7.788;2022-10-31T05:26:01;8.60;99.90
2002;DHT22;1003;48.002;7.788;2022-10-31T05:28:28;8.60;99.90
2002;DHT22;1003;48.002;7.788;2022-10-31T05:30:56;8.60;99.90
2002;DHT22;1003;48.002;7.788;2022-10-31T05:33:23;8.60;99.90
2002;DHT22;1003;48.002;7.788;2022-10-31T05:35:50;8.60;99.90
2002;DHT22;1003;48.002;7.788;2022-10-31T05:38:17;8.60;99.90
2002;DHT22;1003;48.002;7.788;2022-10-31T05:40:44;8.60;99.90
2002;DHT22;1003;48.002;7.788;2022-10-31T05:43:11;8.70;99.90
2002;DHT22;1003;48.002;7.788;2022-10-31T05:45:38;8.70;99.90
2002;DHT22;1003;48.002;7.788;2022-10-31T05:48:08;8.70;99.90
2002;DHT22;1003;48.002;7.788;2022-10-31T05:50:35;8.70;99.90
2002;DHT22;1003;48.002;7.788;2022-10-31T05:53:05;8.70;99.90
2002;DHT22;1003;48.002;7.788;2022-10-31T05:55:33;8.70;99.90
2002;DHT22;1003;48.002;7.788;2022-10-31T05:58:00;8.70;99.90
2002;DHT22;1003;48.002;7.788;2022-10-31T06:00:27;8.70;99.90
2002;DHT22;1003;48.002;7.788;2022-10-31T06:02:58;8.80;99.90
2002;DHT22;1003;48.002;7.788;2022-10-31T06:05:27;8.80;99.90
2002;DHT22;1003;48.002;7.788;2022-10-31T06:07:55;8.90;99.90
2002;DHT22;1003;48.002;7.788;2022-10-31T06:10:22;8.90;99.90
2002;DHT22;1003;48.002;7.788;2022-10-31T06:12:50;9.00;99.90
2002;DHT22;1003;48.002;7.788;2022-10-31T06:15:18;9.10;99.90
2002;DHT22;1003;48.002;7.788;2022-10-31T06:17:45;9.20;99.90
2002;DHT22;1003;48.002;7.788;2022-10-31T06:20:12;9.20;99.90
2002;DHT22;1003;48.002;7.788;2022-10-31T06:22:40;9.20;99.90
2002;DHT22;1003;48.002;7.788;2022-10-31T06:25:08;9.30;99.90
2002;DHT22;1003;48.002;7.788;2022-10-31T06:27:35;9.30;99.90
2002;DHT22;1003;48.002;7.788;2022-10-31T06:30:02;9.40;99.90
2002;DHT22;1003;48.002;7.788;2022-10-31T06:32:30;9.40;99.90
2002;DHT22;1003;48.002;7.788;2022-10-31T06:34:57;9.50;99.90
2002;DHT22;1003;48.002;7.788;2022-10-31T06:37:24;9.50;99.90
2002;DHT22;1003;48.002;7.788;2022-10-31T06:39:52;9.60;99.90
2002;DHT22;1003;48.002;7.788;2022-10-31T06:42:19;9.70;99.90
2002;DHT22;1003;48.002;7.788;2022-10-31T06:44:46;9.70;99.90
2002;DHT22;1003;48.002;7.788;2022-10-31T06:47:13;9.80;99.90
2002;DHT22;1003;48.002;7.788;2022-10-31T06:49:40;9.90;99.90
2002;DHT22;1003;48.002;7.788;2022-10-31T06:52:07;10.00;99.90
2002;DHT22;1003;48.002;7.788;2022-10-31T06:54:34;10.10;99.90
2002;DHT22;1003;48.002;7.788;2022-10-31T06:57:02;10.10;99.90
2002;DHT22;1003;48.002;7.788;2022-10-31T06:59:29;10.20;99.90
2002;DHT22;1003;48.002;7.788;2022-10-31T07:01:58;10.30;99.90
2002;DHT22;1003;48.002;7.788;2022-10-31T07:04:25;10.40;99.90
2002;DHT22;1003;48.002;7.788;2022-10-31T07:06:52;10.50;99.90
2002;DHT22;1003;48.002;7.788;2022-10-31T07:09:20;10.60;99.90
2002;DHT22;1003;48.002;7.788;2022-10-31T07:11:52;10.70;99.90
2002;DHT22;1003;48.002;7.788;2022-10-31T07:14:21;10.80;99.90
2002;DHT22;1003;48.002;7.788;2022-10-31T07:16:49;10.70;99.90
2002;DHT22;1003;48.002;7.788;2022-10-31T07:19:17;10.80;99.90
2002;DHT22;1003;48.002;7.788;2022-10-31T07:21:45;10.80;99.90
2002;DHT22;1003;48.002;7.788;2022-10-31T07:24:12;10.80;99.90
2002;DHT22;1003;48.002;7.788;2022-10-31T07:26:39;10.90;99.90
2002;DHT22;1003;48.002;7.788;2022-10-31T07:29:07;10.90;99.90
2002;DHT22;1003;48.002;7.788;2022-10-31T07:31:36;11.00;99.90
2002;DHT22;1003;48.002;7.788;2022-10-31T07:34:03;11.00;99.90
2002;DHT22;1003;48.002;7.788;2022-10-31T07:36:30;11.10;99.90
2002;DHT22;1003;48.002;7.788;2022-10-31T07:38:57;11.20;99.90
2002;DHT22;1003;48.002;7.788;2022-10-31T07:41:25;11.30;99.90
2002;DHT22;1003;48.002;7.788;2022-10-31T07:43:52;11.40;99.90
2002;DHT22;1003;48.002;7.788;2022-10-31T07:46:19;11.50;99.90
2002;DHT22;1003;48.002;7.788;2022-10-31T07:48:47;11.70;99.90
2002;DHT22;1003;48.002;7.788;2022-10-31T07:51:14;11.90;99.90
2002;DHT22;1003;48.002;7.788;2022-10-31T07:53:41;12.00;99.90
2002;DHT22;1003;48.002;7.788;2022-10-31T07:56:08;12.20;99.90
2002;DHT22;1003;48.002;7.788;2022-10-31T07:58:35;12.30;99.90
2002;DHT22;1003;48.002;7.788;2022-10-31T08:01:02;12.50;99.90
2002;DHT22;1003;48.002;7.788;2022-10-31T08:03:29;12.70;99.90
2002;DHT22;1003;48.002;7.788;2022-10-31T08:05:58;12.80;99.90
2002;DHT22;1003;48.002;7.788;2022-10-31T08:08:25;13.00;99.90
2002;DHT22;1003;48.002;7.788;2022-10-31T08:10:53;13.20;99.90
2002;DHT22;1003;48.002;7.788;2022-10-31T08:13:21;13.40;99.90
2002;DHT22;1003;48.002;7.788;2022-10-31T08:15:48;13.60;99.90
2002;DHT22;1003;48.002;7.788;2022-10-31T08:18:17;13.70;99.90
2002;DHT22;1003;48.002;7.788;2022-10-31T08:20:44;13.80;99.90
2002;DHT22;1003;48.002;7.788;2022-10-31T08:23:13;13.90;99.90
2002;DHT22;1003;48.002;7.788;2022-10-31T08:25:41;14.00;99.90
2002;DHT22;1003;48.002;7.788;2022-10-31T08:28:10;14.10;99.90
2002;DHT22;1003;48.002;7.788;2022-10-31T08:30:38;14.10;99.90
2002;DHT22;1003;48.002;7.788;2022-10-31T08:33:10;14.20;99.90
2002;DHT22;1003;48.002;7.788;2022-10-31T08:35:38;14.30;99.90
2002;DHT22;1003;48.002;7.788;2022-10-31T08:38:07;14.40;99.90
2002;DHT22;1003;48.002;7.788;2022-10-31T08:40:37;14.50;99.90
2002;DHT22;1003;48.002;7.788;2022-10-31T08:43:06;14.50;99.90
2002;DHT22;1003;48.002;7.788;2022-10-31T08:45:40;14.50;99.90
2002;DHT22;1003;48.002;7.788;2022-10-31T08:48:10;14.70;99.90
2002;DHT22;1003;48.002;7.788;2022-10-31T08:50:38;14.90;99.90
2002;DHT22;1003;48.002;7.788;2022-10-31T08:53:09;15.00;99.90
2002;DHT22;1003;48.002;7.788;2022-10-31T08:55:40;15.00;99.90
2002;DHT22;1003;48.002;7.788;2022-10-31T08:58:11;15.10;99.90
2002;DHT22;1003;48.002;7.788;2022-10-31T09:00:39;15.10;99.90
2002;DHT22;1003;48.002;7.788;2022-10-31T09:03:08;15.20;99.90
2002;DHT22;1003;48.002;7.788;2022-10-31T09:05:37;15.40;99.90
2002;DHT22;1003;48.002;7.788;2022-10-31T09:08:05;15.40;99.90
2002;DHT22;1003;48.002;7.788;2022-10-31T09:10:34;15.50;99.90
2002;DHT22;1003;48.002;7.788;2022-10-31T09:13:06;15.50;99.90
2002;DHT22;1003;48.002;7.788;2022-10-31T09:15:35;15.50;99.90
2002;DHT22;1003;48.002;7.788;2022-10-31T09:18:05;15.60;99.90
2002;DHT22;1003;48.002;7.788;2022-10-31T09:20:33;15.80;99.90
2002;DHT22;1003;48.002;7.788;2022-10-31T09:23:03;16.00;99.90
2002;DHT22;1003;48.002;7.788;2022-10-31T09:25:32;16.10;99.90
2002;DHT22;1003;48.002;7.788;2022-10-31T09:28:02;16.00;99.90
2002;DHT22;1003;48.002;7.788;2022-10-31T09:30:33;16.50;99.90
2002;DHT22;1003;48.002;7.788;2022-10-31T09:33:03;16.60;99.90
2002;DHT22;1003;48.002;7.788;2022-10-31T09:35:32;16.70;99.90
2002;DHT22;1003;48.002;7.788;2022-10-31T09:38:01;16.70;99.90
2002;DHT22;1003;48.002;7.788;2022-10-31T09:40:34;16.80;99.90
2002;DHT22;1003;48.002;7.788;2022-10-31T09:43:12;16.60;99.90
2002;DHT22;1003;48.002;7.788;2022-10-31T09:45:51;16.60;99.90
2002;DHT22;1003;48.002;7.788;2022-10-31T09:48:35;16.70;99.90
2002;DHT22;1003;48.002;7.788;2022-10-31T09:51:13;16.80;99.90
2002;DHT22;1003;48.002;7.788;2022-10-31T09:53:46;16.80;99.90
2002;DHT22;1003;48.002;7.788;2022-10-31T09:56:18;16.80;99.90
2002;DHT22;1003;48.002;7.788;2022-10-31T09:58:51;16.70;99.90
2002;DHT22;1003;48.002;7.788;2022-10-31T10:01:31;16.90;99.90
2002;DHT22;1003;48.002;7.788;2022-10-31T10:04:15;16.80;99.90
2002;DHT22;1003;48.002;7.788;2022-10-31T10:06:58;16.90;99.90
2002;DHT22;1003;48.002;7.788;2022-10-31T10:09:29;17.00;99.90
2002;DHT22;1003;48.002;7.788;2022-10-31T10:12:06;17.10;99.90
2002;DHT22;1003;48.002;7.788;2022-10-31T10:14:55;17.00;99.90
2002;DHT22;1003;48.002;7.788;2022-10-31T10:17:37;17.10;99.90
2002;DHT22;1003;48.002;7.788;2022-10-31T10:20:18;17.00;99.90
2002;DHT22;1003;48.002;7.788;2022-10-31T10:23:04;17.20;99.90
2002;DHT22;1003;48.002;7.788;2022-10-31T10:25:46;17.30;99.90
2002;DHT22;1003;48.002;7.788;2022-10-31T10:28:21;17.30;99.90
2002;DHT22;1003;48.002;7.788;2022-10-31T10:30:58;17.30;99.90
2002;DHT22;1003;48.002;7.788;2022-10-31T10:33:31;17.20;99.90
2002;DHT22;1003;48.002;7.788;2022-10-31T10:36:05;17.20;99.90
2002;DHT22;1003;48.002;7.788;2022-10-31T10:38:45;17.20;99.90
2002;DHT22;1003;48.002;7.788;2022-10-31T10:41:26;17.10;99.90
2002;DHT22;1003;48.002;7.788;2022-10-31T10:43:56;17.10;99.90
2002;DHT22;1003;48.002;7.788;2022-10-31T10:46:29;17.30;99.90
2002;DHT22;1003;48.002;7.788;2022-10-31T10:49:28;17.30;99.90
2002;DHT22;1003;48.002;7.788;2022-10-31T10:52:05;17.10;99.90
2002;DHT22;1003;48.002;7.788;2022-10-31T10:54:49;17.20;99.90
2002;DHT22;1003;48.002;7.788;2022-10-31T10:57:30;17.10;99.90
2002;DHT22;1003;48.002;7.788;2022-10-31T11:00:17;17.00;99.90
2002;DHT22;1003;48.002;7.788;2022-10-31T11:02:48;16.90;99.90
2002;DHT22;1003;48.002;7.788;2022-10-31T11:05:23;16.80;99.90
2002;DHT22;1003;48.002;7.788;2022-10-31T11:07:51;16.90;99.90
2002;DHT22;1003;48.002;7.788;2022-10-31T11:10:18;16.90;99.90
2002;DHT22;1003;48.002;7.788;2022-10-31T11:12:59;17.00;99.90
2002;DHT22;1003;48.002;7.788;2022-10-31T11:15:32;17.10;99.90
2002;DHT22;1003;48.002;7.788;2022-10-31T11:18:04;16.80;99.90
2002;DHT22;1003;48.002;7.788;2022-10-31T11:20:33;16.80;99.90
2002;DHT22;1003;48.002;7.788;2022-10-31T11:23:16;16.90;99.90
2002;DHT22;1003;48.002;7.788;2022-10-31T11:25:49;17.10;99.90
2002;DHT22;1003;48.002;7.788;2022-10-31T11:28:21;17.40;99.90
2002;DHT22;1003;48.002;7.788;2022-10-31T11:30:52;17.50;99.90
2002;DHT22;1003;48.002;7.788;2022-10-31T11:33:26;18.00;99.90
2002;DHT22;1003;48.002;7.788;2022-10-31T11:35:58;18.10;99.90
2002;DHT22;1003;48.002;7.788;2022-10-31T11:38:33;18.20;99.90
2002;DHT22;1003;48.002;7.788;2022-10-31T11:41:11;18.50;99.90
2002;DHT22;1003;48.002;7.788;2022-10-31T11:43:49;18.40;99.90
2002;DHT22;1003;48.002;7.788;2022-10-31T11:46:21;18.50;99.90
2002;DHT22;1003;48.002;7.788;2022-10-31T11:49:01;18.80;99.90
2002;DHT22;1003;48.002;7.788;2022-10-31T11:51:33;18.70;99.90
2002;DHT22;1003;48.002;7.788;2022-10-31T11:54:02;19.00;99.90
2002;DHT22;1003;48.002;7.788;2022-10-31T11:56:41;18.70;99.90
2002;DHT22;1003;48.002;7.788;2022-10-31T11:59:23;18.80;99.90
2002;DHT22;1003;48.002;7.788;2022-10-31T12:01:55;18.50;99.90
2002;DHT22;1003;48.002;7.788;2022-10-31T12:04:31;18.50;99.90
2002;DHT22;1003;48.002;7.788;2022-10-31T12:07:06;18.60;99.90
2002;DHT22;1003;48.002;7.788;2022-10-31T12:09:35;18.50;99.90
2002;DHT22;1003;48.002;7.788;2022-10-31T12:15:27;18.60;99.90
2002;DHT22;1003;48.002;7.788;2022-10-31T12:18:22;18.70;99.90
2002;DHT22;1003;48.002;7.788;2022-10-31T12:24:07;18.80;99.90
2002;DHT22;1003;48.002;7.788;2022-10-31T12:26:51;18.70;99.90
2002;DHT22;1003;48.002;7.788;2022-10-31T12:29:34;18.50;99.90
2002;DHT22;1003;48.002;7.788;2022-10-31T12:32:21;18.70;99.90
2002;DHT22;1003;48.002;7.788;2022-10-31T12:35:21;18.80;99.90
2002;DHT22;1003;48.002;7.788;2022-10-31T12:38:14;18.80;99.90
2002;DHT22;1003;48.002;7.788;2022-10-31T12:41:05;18.70;99.90
2002;DHT22;1003;48.002;7.788;2022-10-31T12:43:49;18.70;99.90
2002;DHT22;1003;48.002;7.788;2022-10-31T12:46:33;18.60;99.90
2002;DHT22;1003;48.002;7.788;2022-10-31T12:49:35;18.70;99.90
2002;DHT22;1003;48.002;7.788;2022-10-31T12:52:28;18.60;99.90
2002;DHT22;1003;48.002;7.788;2022-10-31T12:55:14;18.40;99.90
2002;DHT22;1003;48.002;7.788;2022-10-31T12:57:54;18.50;99.90
2002;DHT22;1003;48.002;7.788;2022-10-31T13:00:26;18.50;99.90
2002;DHT22;1003;48.002;7.788;2022-10-31T13:02:58;18.50;99.90
2002;DHT22;1003;48.002;7.788;2022-10-31T13:05:39;18.50;99.90
2002;DHT22;1003;48.002;7.788;2022-10-31T13:08:12;18.50;99.90
2002;DHT22;1003;48.002;7.788;2022-10-31T13:10:48;18.40;99.90
2002;DHT22;1003;48.002;7.788;2022-10-31T13:13:21;18.40;99.90
2002;DHT22;1003;48.002;7.788;2022-10-31T13:15:55;18.30;99.90
2002;DHT22;1003;48.002;7.788;2022-10-31T13:18:29;18.20;99.90
2002;DHT22;1003;48.002;7.788;2022-10-31T13:21:03;18.30;99.90
2002;DHT22;1003;48.002;7.788;2022-10-31T13:23:36;18.30;99.90
2002;DHT22;1003;48.002;7.788;2022-10-31T13:26:12;18.30;99.90
2002;DHT22;1003;48.002;7.788;2022-10-31T13:28:46;18.50;99.90
2002;DHT22;1003;48.002;7.788;2022-10-31T13:31:15;18.70;99.90
2002;DHT22;1003;48.002;7.788;2022-10-31T13:33:46;18.90;99.90
2002;DHT22;1003;48.002;7.788;2022-10-31T13:36:24;19.10;99.90
2002;DHT22;1003;48.002;7.788;2022-10-31T13:39:02;19.40;99.90
2002;DHT22;1003;48.002;7.788;2022-10-31T13:41:43;19.50;99.90
2002;DHT22;1003;48.002;7.788;2022-10-31T13:44:17;19.60;99.90
2002;DHT22;1003;48.002;7.788;2022-10-31T13:46:47;19.30;99.90
2002;DHT22;1003;48.002;7.788;2022-10-31T13:49:38;19.50;99.90
2002;DHT22;1003;48.002;7.788;2022-10-31T13:52:16;19.20;99.90
2002;DHT22;1003;48.002;7.788;2022-10-31T13:54:52;19.10;99.90
2002;DHT22;1003;48.002;7.788;2022-10-31T13:57:33;19.10;99.90
2002;DHT22;1003;48.002;7.788;2022-10-31T14:00:23;19.00;99.90
2002;DHT22;1003;48.002;7.788;2022-10-31T14:02:55;19.00;99.90
2002;DHT22;1003;48.002;7.788;2022-10-31T14:05:25;19.00;99.90
2002;DHT22;1003;48.002;7.788;2022-10-31T14:07:54;19.20;99.90
2002;DHT22;1003;48.002;7.788;2022-10-31T14:10:26;19.00;99.90
2002;DHT22;1003;48.002;7.788;2022-10-31T14:13:04;18.90;99.90
2002;DHT22;1003;48.002;7.788;2022-10-31T14:15:36;18.90;99.90
2002;DHT22;1003;48.002;7.788;2022-10-31T14:18:19;18.90;99.90
2002;DHT22;1003;48.002;7.788;2022-10-31T14:20:50;18.90;99.90
2002;DHT22;1003;48.002;7.788;2022-10-31T14:23:36;19.00;99.90
2002;DHT22;1003;48.002;7.788;2022-10-31T14:26:33;19.00;99.90
2002;DHT22;1003;48.002;7.788;2022-10-31T14:29:21;19.30;99.90
2002;DHT22;1003;48.002;7.788;2022-10-31T14:31:56;19.50;99.90
2002;DHT22;1003;48.002;7.788;2022-10-31T14:34:29;19.70;99.90
2002;DHT22;1003;48.002;7.788;2022-10-31T14:37:16;19.80;99.90
2002;DHT22;1003;48.002;7.788;2022-10-31T14:40:11;19.60;99.90
2002;DHT22;1003;48.002;7.788;2022-10-31T14:42:57;19.50;99.90
2002;DHT22;1003;48.002;7.788;2022-10-31T14:45:52;19.50;99.90
2002;DHT22;1003;48.002;7.788;2022-10-31T14:48:57;19.40;99.90
2002;DHT22;1003;48.002;7.788;2022-10-31T14:51:40;19.20;99.90
2002;DHT22;1003;48.002;7.788;2022-10-31T14:54:12;19.10;99.90
2002;DHT22;1003;48.002;7.788;2022-10-31T14:56:48;18.90;99.90
2002;DHT22;1003;48.002;7.788;2022-10-31T14:59:21;18.80;99.90
2002;DHT22;1003;48.002;7.788;2022-10-31T15:01:57;18.50;99.90
2002;DHT22;1003;48.002;7.788;2022-10-31T15:04:28;18.20;99.90
2002;DHT22;1003;48.002;7.788;2022-10-31T15:07:02;18.10;99.90
2002;DHT22;1003;48.002;7.788;2022-10-31T15:09:35;17.90;99.90
2002;DHT22;1003;48.002;7.788;2022-10-31T15:12:22;17.90;99.90
2002;DHT22;1003;48.002;7.788;2022-10-31T15:14:51;17.80;99.90
2002;DHT22;1003;48.002;7.788;2022-10-31T15:17:21;17.70;99.90
2002;DHT22;1003;48.002;7.788;2022-10-31T15:19:48;17.70;99.90
2002;DHT22;1003;48.002;7.788;2022-10-31T15:22:17;17.40;99.90
2002;DHT22;1003;48.002;7.788;2022-10-31T15:24:48;17.30;99.90
2002;DHT22;1003;48.002;7.788;2022-10-31T15:27:22;17.20;99.90
2002;DHT22;1003;48.002;7.788;2022-10-31T15:29:51;17.00;99.90
2002;DHT22;1003;48.002;7.788;2022-10-31T15:32:23;16.90;99.90
2002;DHT22;1003;48.002;7.788;2022-10-31T15:34:53;16.80;99.90
2002;DHT22;1003;48.002;7.788;2022-10-31T15:37:23;16.60;99.90
2002;DHT22;1003;48.002;7.788;2022-10-31T15:39:52;16.40;99.90
2002;DHT22;1003;48.002;7.788;2022-10-31T15:42:27;16.30;99.90
2002;DHT22;1003;48.002;7.788;2022-10-31T15:44:59;16.20;99.90
2002;DHT22;1003;48.002;7.788;2022-10-31T15:47:31;16.10;99.90
2002;DHT22;1003;48.002;7.788;2022-10-31T15:50:00;16.00;99.90
2002;DHT22;1003;48.002;7.788;2022-10-31T15:52:31;15.90;99.90
2002;DHT22;1003;48.002;7.788;2022-10-31T15:55:14;15.90;99.90
2002;DHT22;1003;48.002;7.788;2022-10-31T15:57:44;15.70;99.90
2002;DHT22;1003;48.002;7.788;2022-10-31T16:00:23;15.60;99.90
2002;DHT22;1003;48.002;7.788;2022-10-31T16:03:04;15.50;99.90
2002;DHT22;1003;48.002;7.788;2022-10-31T16:05:36;15.40;99.90
2002;DHT22;1003;48.002;7.788;2022-10-31T16:08:26;15.20;99.90
2002;DHT22;1003;48.002;7.788;2022-10-31T16:11:13;15.10;99.90
2002;DHT22;1003;48.002;7.788;2022-10-31T16:13:53;15.00;99.90
2002;DHT22;1003;48.002;7.788;2022-10-31T16:16:23;14.90;99.90
2002;DHT22;1003;48.002;7.788;2022-10-31T16:18:54;14.80;99.90
2002;DHT22;1003;48.002;7.788;2022-10-31T16:21:25;14.70;99.90
2002;DHT22;1003;48.002;7.788;2022-10-31T16:23:59;14.50;99.90
2002;DHT22;1003;48.002;7.788;2022-10-31T16:26:28;14.40;99.90
2002;DHT22;1003;48.002;7.788;2022-10-31T16:28:58;14.30;99.90
2002;DHT22;1003;48.002;7.788;2022-10-31T16:31:30;14.20;99.90
2002;DHT22;1003;48.002;7.788;2022-10-31T16:34:26;14.20;99.90
2002;DHT22;1003;48.002;7.788;2022-10-31T16:36:53;14.10;99.90
2002;DHT22;1003;48.002;7.788;2022-10-31T16:39:20;14.00;99.90
2002;DHT22;1003;48.002;7.788;2022-10-31T16:41:49;13.90;99.90
2002;DHT22;1003;48.002;7.788;2022-10-31T16:44:21;13.90;99.90
2002;DHT22;1003;48.002;7.788;2022-10-31T16:47:07;13.80;99.90
2002;DHT22;1003;48.002;7.788;2022-10-31T16:49:37;13.70;99.90
2002;DHT22;1003;48.002;7.788;2022-10-31T16:52:04;13.70;99.90
2002;DHT22;1003;48.002;7.788;2022-10-31T16:54:31;13.70;99.90